createdAt,value
2024-01-28T00:01:59.778Z,9.53
2024-01-28T00:05:01.944Z,9.44
2024-01-28T00:08:07.711Z,9.56
2024-01-28T00:11:09.932Z,9.50
2024-01-28T00:14:12.214Z,9.51
2024-01-28T00:17:14.416Z,9.53
2024-01-28T00:20:16.588Z,9.33
2024-01-28T00:23:18.961Z,9.24
2024-01-28T00:26:21.542Z,9.28
2024-01-28T00:29:30.208Z,9.21
2024-01-28T00:32:32.835Z,9.29
2024-01-28T00:35:35.319Z,9.13
2024-01-28T00:38:38.249Z,9.05
2024-01-28T00:41:40.860Z,9.03
2024-01-28T00:44:43.143Z,9.02
2024-01-28T00:47:45.896Z,9.02
2024-01-28T00:50:48.120Z,9.03
2024-01-28T00:53:50.259Z,9.10
2024-01-28T00:56:57.397Z,9.04
2024-01-28T00:59:59.622Z,9.10
2024-01-28T01:03:02.428Z,9.11
2024-01-28T01:06:07.229Z,8.86
2024-01-28T01:09:09.693Z,8.97
2024-01-28T01:12:11.949Z,8.90
2024-01-28T01:15:14.282Z,8.99
2024-01-28T01:18:16.878Z,9.09
2024-01-28T01:21:19.200Z,9.02
2024-01-28T01:24:21.607Z,9.22
2024-01-28T01:27:23.878Z,9.06
2024-01-28T01:30:26.176Z,9.14
2024-01-28T01:33:28.658Z,8.93
2024-01-28T01:36:31.529Z,9.04
2024-01-28T01:39:33.984Z,8.97
2024-01-28T01:42:36.399Z,9.20
2024-01-28T01:45:38.725Z,9.03
2024-01-28T01:48:41.132Z,9.01
2024-01-28T01:51:45.548Z,8.97
2024-01-28T01:54:48.679Z,9.10
2024-01-28T01:57:51.789Z,9.18
2024-01-28T02:00:54.112Z,9.14
2024-01-28T02:03:58.895Z,9.16
2024-01-28T02:07:01.389Z,8.96
2024-01-28T02:10:07.352Z,9.15
2024-01-28T02:13:09.512Z,9.09
2024-01-28T02:16:11.704Z,8.98
2024-01-28T02:19:13.890Z,8.86
2024-01-28T02:22:16.115Z,8.86
2024-01-28T02:25:18.338Z,8.95
2024-01-28T02:28:22.545Z,8.76
2024-01-28T02:31:24.825Z,8.87
2024-01-28T02:34:27.232Z,8.88
2024-01-28T02:37:29.624Z,9.05
2024-01-28T02:40:32.938Z,9.14
2024-01-28T02:43:35.906Z,9.01
2024-01-28T02:46:38.156Z,9.08
2024-01-28T02:49:41.110Z,9.08
2024-01-28T02:52:43.397Z,9.07
2024-01-28T02:55:45.533Z,9.05
2024-01-28T02:58:47.785Z,8.98
2024-01-28T03:01:50.554Z,9.04
2024-01-28T03:04:52.848Z,9.06
2024-01-28T03:07:55.109Z,8.92
2024-01-28T03:10:57.257Z,8.96
2024-01-28T03:13:59.390Z,9.00
2024-01-28T03:17:02.203Z,9.11
2024-01-28T03:20:04.997Z,8.94
2024-01-28T03:23:07.155Z,8.86
2024-01-28T03:26:12.683Z,8.97
2024-01-28T03:29:14.858Z,9.07
2024-01-28T03:32:17.180Z,9.09
2024-01-28T03:35:19.358Z,9.14
2024-01-28T03:38:21.603Z,9.02
2024-01-28T03:41:23.766Z,9.04
2024-01-28T03:44:25.991Z,9.04
2024-01-28T03:47:28.204Z,8.90
2024-01-28T03:50:30.481Z,9.02
2024-01-28T03:53:33.012Z,8.96
2024-01-28T03:56:35.749Z,9.05
2024-01-28T03:59:41.388Z,8.85
2024-01-28T04:02:43.647Z,8.97
2024-01-28T04:05:45.911Z,8.87
2024-01-28T04:08:48.147Z,8.84
2024-01-28T04:11:50.410Z,8.81
2024-01-28T04:14:52.648Z,8.89
2024-01-28T04:17:54.887Z,8.98
2024-01-28T04:20:57.180Z,8.79
2024-01-28T04:23:59.464Z,8.89
2024-01-28T04:27:01.616Z,8.85
2024-01-28T04:30:05.397Z,8.88
2024-01-28T04:33:07.825Z,8.80
2024-01-28T04:36:10.121Z,8.79
2024-01-28T04:39:12.444Z,8.84
2024-01-28T04:42:14.697Z,8.87
2024-01-28T04:45:17.444Z,8.88
2024-01-28T04:48:20.424Z,8.79
2024-01-28T04:51:22.849Z,8.80
2024-01-28T04:54:25.122Z,8.65
2024-01-28T04:57:28.244Z,8.64
2024-01-28T05:00:30.556Z,8.87
2024-01-28T05:03:32.987Z,8.66
2024-01-28T05:06:38.375Z,8.86
2024-01-28T05:09:40.662Z,8.71
2024-01-28T05:12:42.843Z,8.74
2024-01-28T05:15:45.225Z,8.66
2024-01-28T05:18:47.631Z,8.77
2024-01-28T05:21:51.220Z,8.66
2024-01-28T05:24:55.150Z,8.64
2024-01-28T05:27:57.327Z,8.67
2024-01-28T05:30:59.532Z,8.79
2024-01-28T05:34:04.827Z,8.77
2024-01-28T05:37:07.116Z,8.72
2024-01-28T05:40:12.602Z,8.75
2024-01-28T05:43:14.775Z,8.74
2024-01-28T05:46:16.978Z,8.59
2024-01-28T05:49:19.170Z,8.55
2024-01-28T05:52:21.397Z,8.67
2024-01-28T05:55:23.591Z,8.70
2024-01-28T05:58:26.530Z,8.60
2024-01-28T06:01:28.786Z,8.58
2024-01-28T06:04:31.326Z,8.50
2024-01-28T06:07:33.586Z,8.53
2024-01-28T06:10:36.129Z,8.42
2024-01-28T06:13:38.388Z,8.39
2024-01-28T06:16:40.621Z,8.59
2024-01-28T06:19:42.924Z,8.52
2024-01-28T06:22:45.133Z,8.43
2024-01-28T06:25:47.378Z,8.59
2024-01-28T06:28:49.725Z,8.60
2024-01-28T06:31:52.010Z,8.61
2024-01-28T06:34:54.378Z,8.51
2024-01-28T06:37:56.810Z,8.46
2024-01-28T06:40:59.654Z,8.43
2024-01-28T06:44:04.545Z,8.61
2024-01-28T06:47:07.638Z,8.51
2024-01-28T06:50:10.243Z,8.56
2024-01-28T06:53:12.528Z,8.71
2024-01-28T06:56:14.920Z,8.71
2024-01-28T06:59:19.682Z,8.77
2024-01-28T07:02:25.449Z,8.67
2024-01-28T07:05:27.775Z,8.85
2024-01-28T07:08:30.135Z,9.02
2024-01-28T07:11:32.451Z,9.06
2024-01-28T07:14:34.564Z,9.20
2024-01-28T07:17:36.753Z,9.20
2024-01-28T07:20:38.938Z,9.40
2024-01-28T07:23:41.588Z,9.46
2024-01-28T07:26:44.466Z,9.27
2024-01-28T07:29:46.713Z,9.31
2024-01-28T07:32:49.097Z,9.29
2024-01-28T07:35:51.285Z,9.31
2024-01-28T07:38:53.494Z,9.42
2024-01-28T07:41:55.586Z,9.49
2024-01-28T07:44:57.827Z,9.53
2024-01-28T07:48:00.167Z,9.58
2024-01-28T07:51:02.586Z,9.72
2024-01-28T07:54:04.811Z,9.79
2024-01-28T07:57:07.558Z,9.75
2024-01-28T08:00:11.450Z,9.69
2024-01-28T08:03:16.361Z,9.86
2024-01-28T08:06:18.568Z,9.79
2024-01-28T08:09:20.901Z,9.82
2024-01-28T08:12:23.181Z,9.86
2024-01-28T08:15:25.375Z,10.06
2024-01-28T08:18:27.667Z,10.05
2024-01-28T08:21:29.947Z,10.10
2024-01-28T08:24:32.549Z,10.17
2024-01-28T08:27:34.815Z,10.05
2024-01-28T08:30:37.089Z,10.29
2024-01-28T08:33:39.332Z,10.16
2024-01-28T08:36:41.650Z,10.22
2024-01-28T08:39:43.990Z,10.26
2024-01-28T08:42:46.185Z,10.31
2024-01-28T08:45:48.500Z,10.35
2024-01-28T08:48:50.817Z,10.40
2024-01-28T08:51:53.969Z,10.34
2024-01-28T08:54:56.253Z,10.31
2024-01-28T08:57:58.638Z,10.25
2024-01-28T09:01:00.955Z,10.29
2024-01-28T09:04:03.293Z,10.28
2024-01-28T09:07:05.623Z,10.36
2024-01-28T09:10:08.346Z,10.35
2024-01-28T09:13:10.586Z,10.51
2024-01-28T09:16:12.831Z,10.81
2024-01-28T09:19:15.049Z,10.71
2024-01-28T09:22:17.296Z,10.75
2024-01-28T09:25:19.470Z,10.74
2024-01-28T09:28:21.600Z,10.69
2024-01-28T09:31:23.896Z,10.65
2024-01-28T09:34:26.538Z,10.74
2024-01-28T09:37:28.860Z,10.73
2024-01-28T09:40:31.072Z,10.78
2024-01-28T09:43:33.266Z,10.83
2024-01-28T09:46:35.700Z,10.80
2024-01-28T09:49:41.141Z,10.92
2024-01-28T09:52:43.475Z,10.99
2024-01-28T09:55:45.674Z,11.05
2024-01-28T09:58:48.511Z,11.09
2024-01-28T10:01:53.681Z,11.02
2024-01-28T10:04:57.482Z,11.10
2024-01-28T10:08:05.445Z,10.97
2024-01-28T10:11:08.066Z,11.05
2024-01-28T10:14:11.821Z,10.98
2024-01-28T10:17:14.773Z,11.02
2024-01-28T10:20:18.003Z,11.17
2024-01-28T10:23:20.236Z,11.29
2024-01-28T10:26:22.478Z,11.31
2024-01-28T10:29:26.854Z,11.44
2024-01-28T10:32:29.116Z,11.54
2024-01-28T10:35:31.383Z,11.53
2024-01-28T10:38:38.877Z,11.56
2024-01-28T10:41:44.314Z,11.72
2024-01-28T10:44:49.325Z,11.70
2024-01-28T10:47:55.886Z,11.81
2024-01-28T10:50:59.331Z,11.81
2024-01-28T10:54:05.579Z,11.92
2024-01-28T10:57:13.866Z,11.95
2024-01-28T11:00:21.923Z,11.98
2024-01-28T11:03:24.504Z,12.11
2024-01-28T11:06:33.443Z,12.17
2024-01-28T11:09:36.310Z,12.19
2024-01-28T11:12:38.632Z,12.33
2024-01-28T11:15:43.354Z,12.39
2024-01-28T11:19:07.235Z,12.47
2024-01-28T11:22:17.137Z,12.54
2024-01-28T11:25:25.456Z,12.66
2024-01-28T11:28:28.674Z,12.74
2024-01-28T11:31:37.365Z,12.86
2024-01-28T11:34:43.475Z,12.95
2024-01-28T11:37:58.779Z,13.02
2024-01-28T11:41:01.372Z,13.08
2024-01-28T11:44:04.265Z,13.15
2024-01-28T11:47:08.126Z,13.23
2024-01-28T11:50:12.828Z,13.33
2024-01-28T11:53:16.365Z,13.41
2024-01-28T11:56:18.567Z,13.52
2024-01-28T11:59:20.739Z,13.63
2024-01-28T12:02:23.502Z,13.68
2024-01-28T12:05:25.913Z,13.72
2024-01-28T12:08:28.854Z,13.85
2024-01-28T12:11:31.737Z,13.92
2024-01-28T12:14:34.289Z,13.96
2024-01-28T12:17:40.380Z,14.02
2024-01-28T12:20:42.600Z,14.11
2024-01-28T12:23:46.832Z,14.22
2024-01-28T12:26:49.022Z,14.24
2024-01-28T12:29:51.209Z,14.28
2024-01-28T12:32:53.684Z,14.34
2024-01-28T12:35:55.907Z,14.32
2024-01-28T12:38:58.150Z,14.48
2024-01-28T12:42:00.415Z,14.56
2024-01-28T12:45:02.712Z,14.58
2024-01-28T12:48:05.679Z,14.66
2024-01-28T12:51:08.355Z,14.67
2024-01-28T12:54:10.738Z,14.76
2024-01-28T12:57:14.614Z,14.73
2024-01-28T13:00:18.336Z,14.81
2024-01-28T13:03:21.486Z,14.86
2024-01-28T13:06:27.040Z,14.90
2024-01-28T13:09:30.072Z,14.92
2024-01-28T13:12:38.211Z,15.01
2024-01-28T13:15:40.478Z,15.05
2024-01-28T13:18:44.607Z,15.09
2024-01-28T13:21:47.249Z,15.10
2024-01-28T13:24:53.685Z,15.15
2024-01-28T13:27:56.112Z,15.20
2024-01-28T13:30:59.486Z,15.14
2024-01-28T13:34:02.001Z,15.18
2024-01-28T13:37:07.490Z,15.18
2024-01-28T13:40:10.303Z,15.26
2024-01-28T13:43:12.535Z,15.28
2024-01-28T13:46:15.066Z,15.34
2024-01-28T13:49:17.389Z,15.38
2024-01-28T13:52:19.613Z,15.37
2024-01-28T13:55:21.831Z,15.34
2024-01-28T13:58:23.974Z,15.39
2024-01-28T14:01:29.692Z,15.40
2024-01-28T14:04:32.225Z,15.41
2024-01-28T14:07:34.495Z,15.44
2024-01-28T14:10:36.712Z,15.35
2024-01-28T14:13:38.958Z,15.39
2024-01-28T14:16:41.151Z,15.42
2024-01-28T14:19:43.489Z,15.44
2024-01-28T14:22:45.709Z,15.42
2024-01-28T14:25:49.316Z,15.44
2024-01-28T14:28:53.915Z,15.41
2024-01-28T14:31:56.053Z,15.45
2024-01-28T14:34:58.357Z,15.40
2024-01-28T14:38:00.642Z,15.43
2024-01-28T14:41:02.868Z,15.48
2024-01-28T14:44:05.834Z,15.45
2024-01-28T14:47:08.642Z,15.43
2024-01-28T14:50:11.123Z,15.42
2024-01-28T14:53:13.335Z,15.33
2024-01-28T14:56:15.590Z,15.30
2024-01-28T14:59:17.774Z,15.28
2024-01-28T15:02:20.830Z,15.25
2024-01-28T15:05:23.175Z,15.25
2024-01-28T15:08:25.350Z,15.10
2024-01-28T15:11:27.529Z,15.11
2024-01-28T15:14:29.777Z,15.04
2024-01-28T15:17:31.983Z,14.93
2024-01-28T15:20:34.159Z,14.88
2024-01-28T15:23:39.029Z,14.67
2024-01-28T15:26:41.555Z,14.56
2024-01-28T15:29:46.612Z,14.44
2024-01-28T15:32:48.987Z,14.26
2024-01-28T15:35:53.670Z,14.11
2024-01-28T15:38:55.791Z,13.91
2024-01-28T15:41:58.462Z,13.73
2024-01-28T15:45:00.805Z,13.65
2024-01-28T15:48:03.484Z,13.56
2024-01-28T15:51:05.886Z,13.39
2024-01-28T15:54:10.228Z,13.00
2024-01-28T15:57:12.632Z,12.99
2024-01-28T16:00:15.310Z,12.97
2024-01-28T16:03:17.572Z,12.92
2024-01-28T16:06:19.900Z,12.77
2024-01-28T16:09:22.270Z,12.70
2024-01-28T16:12:25.500Z,12.51
2024-01-28T16:15:28.295Z,12.51
2024-01-28T16:18:30.802Z,12.33
2024-01-28T16:21:33.134Z,12.40
2024-01-28T16:24:35.438Z,12.20
2024-01-28T16:27:37.885Z,12.20
2024-01-28T16:30:40.398Z,12.11
2024-01-28T16:33:42.593Z,11.88
2024-01-28T16:36:45.003Z,11.89
2024-01-28T16:39:49.376Z,12.01
2024-01-28T16:42:51.817Z,11.93
2024-01-28T16:45:54.072Z,11.78
2024-01-28T16:48:56.428Z,11.73
2024-01-28T16:51:59.133Z,11.59
2024-01-28T16:55:01.407Z,11.47
2024-01-28T16:58:05.158Z,11.43
2024-01-28T17:01:10.194Z,11.38
2024-01-28T17:04:12.552Z,11.33
2024-01-28T17:07:14.861Z,11.30
2024-01-28T17:10:17.299Z,11.17
2024-01-28T17:13:19.483Z,11.18
2024-01-28T17:16:21.916Z,11.16
2024-01-28T17:19:24.101Z,11.07
2024-01-28T17:22:26.398Z,11.17
2024-01-28T17:25:29.570Z,11.15
2024-01-28T17:28:31.796Z,10.98
2024-01-28T17:31:35.755Z,11.10
2024-01-28T17:34:38.851Z,11.12
2024-01-28T17:37:42.747Z,10.98
2024-01-28T17:40:45.376Z,10.84
2024-01-28T17:43:50.700Z,10.74
2024-01-28T17:46:53.711Z,10.60
2024-01-28T17:49:56.035Z,10.62
2024-01-28T17:53:01.312Z,10.59
2024-01-28T17:56:03.674Z,10.69
2024-01-28T17:59:05.871Z,10.59
2024-01-28T18:02:08.119Z,10.46
2024-01-28T18:05:10.461Z,10.46
2024-01-28T18:08:12.638Z,10.35
2024-01-28T18:11:16.701Z,10.39
2024-01-28T18:14:18.886Z,10.30
2024-01-28T18:17:21.216Z,10.31
2024-01-28T18:20:24.744Z,10.21
2024-01-28T18:23:26.992Z,10.37
2024-01-28T18:26:29.856Z,10.31
2024-01-28T18:29:32.852Z,10.26
2024-01-28T18:32:35.126Z,10.19
2024-01-28T18:35:37.349Z,10.16
2024-01-28T18:38:40.013Z,10.10
2024-01-28T18:41:42.189Z,10.08
2024-01-28T18:44:46.261Z,10.08
2024-01-28T18:47:48.556Z,9.96
2024-01-28T18:50:52.124Z,9.88
2024-01-28T18:53:54.817Z,9.85
2024-01-28T18:56:57.015Z,9.75
2024-01-28T18:59:59.144Z,9.73
2024-01-28T19:03:07.043Z,9.68
2024-01-28T19:06:10.575Z,9.61
2024-01-28T19:09:14.115Z,9.51
2024-01-28T19:12:16.681Z,9.62
2024-01-28T19:15:19.012Z,9.50
2024-01-28T19:18:23.644Z,9.34
2024-01-28T19:21:25.944Z,9.44
2024-01-28T19:24:28.253Z,9.36
2024-01-28T19:27:30.568Z,9.44
2024-01-28T19:30:32.811Z,9.42
2024-01-28T19:33:35.367Z,9.37
2024-01-28T19:36:37.764Z,9.39
2024-01-28T19:39:41.119Z,9.36
2024-01-28T19:42:43.434Z,9.40
2024-01-28T19:45:48.007Z,9.33
2024-01-28T19:48:50.352Z,9.22
2024-01-28T19:51:52.648Z,9.17
2024-01-28T19:54:55.087Z,9.09
2024-01-28T19:57:57.441Z,9.05
2024-01-28T20:00:59.765Z,9.06
2024-01-28T20:04:02.203Z,8.99
2024-01-28T20:07:04.613Z,8.96
2024-01-28T20:10:08.439Z,8.96
2024-01-28T20:13:10.669Z,9.00
2024-01-28T20:16:12.908Z,8.96
2024-01-28T20:19:18.534Z,9.03
2024-01-28T20:22:20.765Z,9.01
2024-01-28T20:25:22.946Z,8.92
2024-01-28T20:28:25.234Z,8.91
2024-01-28T20:31:27.730Z,8.84
2024-01-28T20:34:29.960Z,8.78
2024-01-28T20:37:32.250Z,8.75
2024-01-28T20:40:34.811Z,8.72
2024-01-28T20:43:37.060Z,8.68
2024-01-28T20:46:41.825Z,8.63
2024-01-28T20:49:44.519Z,8.53
2024-01-28T20:52:46.726Z,8.55
2024-01-28T20:55:49.344Z,8.58
2024-01-28T20:58:51.642Z,8.47
2024-01-28T21:01:54.113Z,8.52
2024-01-28T21:04:56.355Z,8.48
2024-01-28T21:07:58.925Z,8.51
2024-01-28T21:11:08.450Z,8.47
2024-01-28T21:14:11.576Z,8.42
2024-01-28T21:17:13.787Z,8.48
2024-01-28T21:20:15.984Z,8.50
2024-01-28T21:23:22.804Z,8.43
2024-01-28T21:26:25.011Z,8.51
2024-01-28T21:29:32.961Z,8.48
2024-01-28T21:32:35.308Z,8.41
2024-01-28T21:35:37.577Z,8.45
2024-01-28T21:38:39.780Z,8.52
2024-01-28T21:41:42.039Z,8.47
2024-01-28T21:44:44.424Z,8.53
2024-01-28T21:47:46.584Z,8.50
2024-01-28T21:50:48.823Z,8.51
2024-01-28T21:53:51.054Z,8.48
2024-01-28T21:56:55.925Z,8.50
2024-01-28T21:59:58.082Z,8.45
2024-01-28T22:03:00.381Z,8.50
2024-01-28T22:06:02.911Z,8.51
2024-01-28T22:09:05.194Z,8.52
2024-01-28T22:12:07.950Z,8.49
2024-01-28T22:15:10.357Z,8.52
2024-01-28T22:18:12.545Z,8.53
2024-01-28T22:21:16.109Z,8.46
2024-01-28T22:24:18.725Z,8.46
2024-01-28T22:27:21.380Z,8.53
2024-01-28T22:30:24.935Z,8.54
2024-01-28T22:33:27.420Z,8.54
2024-01-28T22:36:29.767Z,8.57
2024-01-28T22:39:32.488Z,8.57
2024-01-28T22:42:34.732Z,8.44
2024-01-28T22:45:36.941Z,8.53
2024-01-28T22:48:39.284Z,8.55
2024-01-28T22:51:41.652Z,8.73
2024-01-28T22:54:43.974Z,8.76
2024-01-28T22:57:46.150Z,8.72
2024-01-28T23:00:48.460Z,8.70
2024-01-28T23:03:50.866Z,8.58
2024-01-28T23:06:53.267Z,8.59
2024-01-28T23:09:55.527Z,8.61
2024-01-28T23:12:58.314Z,8.60
2024-01-28T23:16:00.465Z,8.58
2024-01-28T23:19:02.888Z,8.59
2024-01-28T23:22:05.234Z,8.61
2024-01-28T23:25:07.470Z,8.65
2024-01-28T23:28:09.770Z,8.64
2024-01-28T23:31:12.005Z,8.64
2024-01-28T23:34:15.814Z,8.59
2024-01-28T23:37:18.534Z,8.59
2024-01-28T23:40:20.710Z,8.53
2024-01-28T23:43:22.814Z,8.52
2024-01-28T23:46:24.944Z,8.47
2024-01-28T23:49:27.218Z,8.46
2024-01-28T23:52:29.522Z,8.44
2024-01-28T23:55:31.685Z,8.46
2024-01-28T23:58:33.864Z,8.39
